Flight Track Log - Related Links

Times and Time Zones

All times are in EST time to prevent confusion due to time zone crossing. See the FIN666 flight status page for this flight to view local times or setup timezone preferences in your user account.

Time Position Orientation Groundspeed Altitude Reporting Facility
EST Latitude Longitude Course Direction KTS MPH feet Rate Location/Type
Fri 07:26:00 AM 55.8329 13.1000 49° Northeast  Level Estimated
Fri 07:27:00 AM 55.9042 13.2491 50° Northeast  Level Estimated
Fri 07:28:00 AM 55.9753 13.3988 50° Northeast  Level Estimated
Fri 07:29:00 AM 56.0462 13.5490 50° Northeast  Level Estimated
Fri 07:30:00 AM 56.1170 13.6997 50° Northeast  Level Estimated
Fri 07:31:00 AM 56.1895 13.8553 50° Northeast  Level Estimated
Fri 07:32:00 AM 56.2618 14.0115 50° Northeast  Level Estimated
Fri 07:33:00 AM 56.3340 14.1683 50° Northeast  Level Estimated
Fri 07:34:00 AM 56.4059 14.3256 50° Northeast  Level Estimated
Fri 07:35:00 AM 56.4777 14.4836 51° Northeast  Level Estimated
Fri 07:36:00 AM 56.5493 14.6421 51° Northeast  Level Estimated
Fri 07:37:00 AM 56.6206 14.8013 51° Northeast  Level Estimated
Fri 07:38:00 AM 56.6917 14.9610 51° Northeast  Level Estimated
Fri 07:39:00 AM 56.7627 15.1214 51° Northeast  Level Estimated
Fri 07:40:00 AM 56.8334 15.2823 51° Northeast  Level Estimated
Fri 07:41:00 AM 56.9040 15.4439 51° Northeast  Level Estimated
Fri 07:42:00 AM 56.9743 15.6061 51° Northeast  Level Estimated
Fri 07:43:00 AM 57.0444 15.7689 52° Northeast  Level Estimated
Fri 07:44:00 AM 57.1143 15.9323 52° Northeast  Level Estimated
Fri 07:45:00 AM 57.1840 16.0963 52° Northeast  Level Estimated
Fri 07:46:00 AM 57.2534 16.2609 52° Northeast  Level Estimated
Fri 07:47:00 AM 57.3227 16.4262 52° Northeast  Level Estimated
Fri 07:48:00 AM 57.3927 16.5945 52° Northeast  Level Estimated
Fri 07:49:00 AM 57.4625 16.7634 52° Northeast  Level Estimated
Fri 07:50:00 AM 57.5321 16.9329 53° Northeast  Level Estimated
Fri 07:51:00 AM 57.6014 17.1031 53° Northeast  Level Estimated
Fri 07:52:00 AM 57.6705 17.2740 53° Northeast  Level Estimated
Fri 07:53:00 AM 57.7394 17.4455 53° Northeast  Level Estimated
Fri 07:54:00 AM 57.8080 17.6176 53° Northeast  Level Estimated
Fri 07:55:00 AM 57.8765 17.7904 53° Northeast  Level Estimated
Fri 07:56:00 AM 57.9446 17.9639 53° Northeast  Level Estimated
Fri 07:57:00 AM 58.0126 18.1380 54° Northeast  Level Estimated
Fri 07:58:00 AM 58.0803 18.3128 54° Northeast  Level Estimated
Fri 07:59:00 AM 58.1477 18.4882 54° Northeast  Level Estimated
Fri 08:00:00 AM 58.2150 18.6643 54° Northeast  Level Estimated
Fri 08:01:00 AM 58.2819 18.8411 54° Northeast  Level Estimated
Fri 08:02:00 AM 58.3487 19.0186 54° Northeast  Level Estimated
Fri 08:03:00 AM 58.4151 19.1967 54° Northeast  Level Estimated
Fri 08:04:00 AM 58.4814 19.3755 55° Northeast  Level Estimated
Fri 08:05:00 AM 58.5474 19.5549 55° Northeast  Level Estimated
Fri 08:06:00 AM 58.6131 19.7351 55° Northeast  Level Estimated
Fri 08:07:00 AM 58.6786 19.9159 55° Northeast  Level Estimated
Fri 08:08:00 AM 58.7438 20.0974 55° Northeast  Level Estimated
Fri 08:09:00 AM 58.8088 20.2796 55° Northeast  Level Estimated
Fri 08:10:00 AM 58.8735 20.4624 56° Northeast  Level Estimated
Fri 08:11:00 AM 58.9380 20.6460 56° Northeast  Level Estimated
Fri 08:12:00 AM 59.0022 20.8302 56° Northeast  Level Estimated
Fri 08:13:00 AM 59.0661 21.0151 56° Northeast  Level Estimated
Fri 08:14:00 AM 59.1298 21.2007 56° Northeast  Level Estimated
Fri 08:15:00 AM 59.1932 21.3870 56° Northeast  Level Estimated
Fri 08:16:00 AM 59.2563 21.5740 56° Northeast  Level Estimated
Fri 08:17:00 AM 59.3183 21.7590 57° Northeast  Level Estimated
Fri 08:18:00 AM 59.3800 21.9447 57° Northeast  Level Estimated
Fri 08:19:00 AM 59.4414 22.1311 57° Northeast  Level Estimated
Fri 08:20:00 AM 59.5026 22.3182 57° Northeast  Level Estimated
Fri 08:21:00 AM 59.5635 22.5059 57° Northeast  Level Estimated
Fri 08:22:00 AM 59.6242 22.6943 57° Northeast  Level Estimated
Fri 08:23:00 AM 59.6846 22.8834 58° Northeast  Level Estimated
Fri 08:24:00 AM 59.7447 23.0732 58° Northeast  Level Estimated
Fri 08:25:00 AM 59.8045 23.2637 58° Northeast  Level Estimated
Fri 08:26:00 AM 59.8641 23.4548 58° Northeast  Level Estimated
Fri 08:27:00 AM 59.9234 23.6466 58° Northeast  Level Estimated
Fri 08:28:00 AM 59.9823 23.8391 58° Northeast  Level Estimated
Fri 08:29:00 AM 60.0411 24.0323 59° Northeast  Level Estimated
Fri 08:30:00 AM 60.0995 24.2262 59° Northeast  Level Estimated
Fri 08:31:00 AM 60.1576 24.4208 59° Northeast  Level Estimated
Fri 08:32:00 AM 60.2155 24.6160 59° Northeast  Level Estimated
Fri 08:33:00 AM 60.2794 24.8335 59° Northeast  Level Estimated
Fri 08:34:00 AM 60.3172 24.9633 59° Northeast  Level Estimated
Fri 08:35:00 AM 60.3172 24.9633 37° Northeast  Level Estimated
Fri 08:36:00 AM 60.3172 24.9633 37° Northeast  Level Estimated
Fri 08:37:00 AM 60.3172 24.9633 37° Northeast  Level Estimated
Fri 08:38:00 AM 60.3172 24.9633 37° Northeast  Level Estimated
Fri 08:39:00 AM 60.3172 24.9633 37° Northeast  Level Estimated
Fri 08:40:00 AM 60.3172 24.9633 37° Northeast  Level Estimated
Fri 08:41:00 AM 60.3172 24.9633 37° Northeast  Level Estimated
Fri 08:42:00 AM 60.3172 24.9633 37° Northeast  Level Estimated
Fri 08:43:00 AM 60.3172 24.9633 37° Northeast  Level Estimated

Login

Don't have an account? Register now (free) for customized features, flight alerts, and more!